Terminal Aerodrome Forecast
Issued by NWS

Home | Current Version | Previous Version | Text Only | Print | Product List | Glossary On
Versions: 1 2 3 4 5 6 7 8 9 10 11 12 13
000
FTUS44 KLUB 011700
TAFCDS
TAF
KCDS 011732Z 0118/0218 21011KT P6SM SKC
     FM012100 17011KT P6SM FEW100 FEW300
     FM020100 18016KT P6SM FEW100 SCT300=

USA.gov is the U.S. government's official web portal to all federal, state and local government web resources and services.